Time;durP1;ratioP1;P1;durP2;ratioP2;P2;SDS_P1;SDS_P2;PMS_P1;PMS_P2;Temp;Humidity;BMP_temperature;BMP_pressure;BME280_temperature;BME280_humidity;BME280_pressure;Samples;Min_cycle;Max_cycle;Signal;HPM_P1;HPM_P2
2022/06/03 00:00:08;;;;;;;365.63;254.57;;;;;;;23.79;64.85;99689.31;342495;28;1645;-79
2022/06/03 00:00:22;;;;;;;366.48;251.25;;;;;;;23.77;65.01;99683.25;340979;29;1639;-79
2022/06/03 00:00:53;;;;;;;368.25;254.20;;;;;;;23.77;65.07;99685.94;340946;28;1444;-79
2022/06/03 00:01:30;;;;;;;363.35;252.05;;;;;;;23.73;65.09;99682.72;340962;28;1463;-79
2022/06/03 00:02:18;;;;;;;357.73;245.75;;;;;;;23.70;65.65;99684.81;341231;29;857;-79
2022/06/03 00:02:45;;;;;;;360.17;245.65;;;;;;;23.66;65.64;99683.44;344687;28;1568;-79
2022/06/03 00:03:16;;;;;;;363.00;249.00;;;;;;;23.64;65.77;99690.75;342560;28;1271;-79
2022/06/03 00:03:47;;;;;;;356.63;246.63;;;;;;;23.63;65.74;99689.91;343285;28;833;-79
2022/06/03 00:04:35;;;;;;;362.02;253.10;;;;;;;23.65;65.77;99681.75;342275;28;3352;-79
2022/06/03 00:05:04;;;;;;;363.00;253.95;;;;;;;23.66;65.85;99675.41;342297;28;1689;-79
2022/06/03 00:05:52;;;;;;;363.02;252.13;;;;;;;23.66;65.83;99678.91;343767;28;909;-79
2022/06/03 00:06:30;;;;;;;359.55;250.60;;;;;;;23.66;65.88;99678.06;342645;28;1598;-79
2022/06/03 00:07:37;;;;;;;360.55;249.00;;;;;;;23.66;65.53;99678.06;344096;28;2315;-78
2022/06/03 00:07:54;;;;;;;365.67;248.52;;;;;;;23.60;65.76;99673.31;342850;28;979;-78
2022/06/03 00:08:42;;;;;;;367.30;251.15;;;;;;;23.57;65.66;99678.94;342995;28;1463;-78
2022/06/03 00:09:24;;;;;;;360.00;244.00;;;;;;;23.57;65.67;99678.94;342156;28;1713;-78
2022/06/03 00:09:44;;;;;;;359.92;251.13;;;;;;;23.59;65.80;99671.63;339467;29;1504;-78
2022/06/03 00:10:26;;;;;;;362.63;246.00;;;;;;;23.62;65.79;99676.69;342109;28;1571;-78
2022/06/03 00:10:54;;;;;;;364.05;250.82;;;;;;;23.61;65.84;99669.66;341157;29;1453;-78
2022/06/03 00:11:23;;;;;;;363.02;255.27;;;;;;;23.63;65.50;99673.03;342260;28;1417;-78
2022/06/03 00:12:16;;;;;;;366.27;256.05;;;;;;;23.62;65.14;99684.69;342066;28;1426;-78
2022/06/03 00:12:47;;;;;;;359.25;250.63;;;;;;;23.54;64.80;99680.91;339969;29;984;-78
2022/06/03 00:12:58;;;;;;;364.40;247.10;;;;;;;23.54;64.66;99680.91;340446;28;4169;-78
2022/06/03 00:13:12;;;;;;;364.00;247.35;;;;;;;23.54;65.19;99678.25;340726;28;2908;-79
2022/06/03 00:13:59;;;;;;;369.45;251.90;;;;;;;23.54;65.04;99682.75;340841;29;1631;-79
2022/06/03 00:14:27;;;;;;;359.40;251.38;;;;;;;23.53;64.86;99684.56;341279;29;1605;-79
2022/06/03 00:14:44;;;;;;;362.17;252.63;;;;;;;23.52;65.41;99677.50;342057;28;1666;-79
2022/06/03 00:15:13;;;;;;;362.30;251.30;;;;;;;23.55;64.96;99674.59;342463;28;1570;-79
2022/06/03 00:15:44;;;;;;;363.10;252.32;;;;;;;23.54;65.06;99678.25;344874;28;1462;-79
2022/06/03 00:15:55;;;;;;;363.23;253.77;;;;;;;23.53;64.83;99673.88;342559;28;1504;-79
2022/06/03 00:16:11;;;;;;;363.27;252.67;;;;;;;23.54;64.85;99675.56;342942;28;1868;-79
2022/06/03 00:16:48;;;;;;;363.13;250.43;;;;;;;23.54;65.07;99680.91;342041;28;1443;-78
2022/06/03 00:17:22;;;;;;;362.73;253.13;;;;;;;23.55;65.23;99677.25;339944;29;909;-79
2022/06/03 00:17:51;;;;;;;362.58;252.02;;;;;;;23.58;64.73;99681.47;340845;28;1550;-79
2022/06/03 00:18:15;;;;;;;359.60;244.95;;;;;;;23.58;64.92;99680.63;340996;28;1223;-79
2022/06/03 00:18:55;;;;;;;363.85;250.40;;;;;;;23.58;65.04;99680.63;342278;28;1773;-79
2022/06/03 00:19:18;;;;;;;358.52;246.40;;;;;;;23.57;64.89;99681.59;341797;28;1443;-80
2022/06/03 00:20:05;;;;;;;367.60;246.00;;;;;;;23.55;64.78;99681.75;342588;28;1070;-80
2022/06/03 00:20:23;;;;;;;361.35;250.63;;;;;;;23.52;65.08;99676.66;338524;29;1107;-78
2022/06/03 00:20:37;;;;;;;364.13;251.82;;;;;;;23.53;64.91;99689.06;342067;28;1439;-79
2022/06/03 00:21:03;;;;;;;365.63;250.25;;;;;;;23.54;65.07;99682.75;342461;28;1914;-79
2022/06/03 00:21:37;;;;;;;358.60;246.48;;;;;;;23.50;65.38;99676.81;343237;28;928;-79
2022/06/03 00:21:56;;;;;;;362.92;249.45;;;;;;;23.50;65.27;99676.81;345169;28;1446;-79
2022/06/03 00:22:12;;;;;;;363.27;251.57;;;;;;;23.49;65.50;99676.94;342207;28;3000;-78
2022/06/03 00:22:31;;;;;;;360.58;252.00;;;;;;;23.49;65.55;99676.94;340186;28;3102;-79
2022/06/03 00:22:54;;;;;;;366.35;253.52;;;;;;;23.47;65.38;99679.75;343546;28;1942;-79
2022/06/03 00:23:44;;;;;;;359.92;246.50;;;;;;;23.46;64.91;99677.22;343708;28;1425;-79
2022/06/03 00:24:17;;;;;;;361.98;245.90;;;;;;;23.42;65.29;99675.84;343673;28;1717;-79
2022/06/03 00:24:47;;;;;;;362.40;249.05;;;;;;;23.43;65.03;99672.19;343942;28;1481;-79
2022/06/03 00:24:58;;;;;;;362.50;248.82;;;;;;;23.42;65.32;99676.69;346445;28;1392;-78
2022/06/03 00:25:27;;;;;;;362.40;245.63;;;;;;;23.43;65.25;99678.38;345527;28;1529;-79
2022/06/03 00:26:10;;;;;;;360.08;242.02;;;;;;;23.42;65.03;99675.84;344270;28;1653;-79
2022/06/03 00:26:27;;;;;;;358.80;244.57;;;;;;;23.39;65.21;99671.66;341889;28;1436;-79
2022/06/03 00:26:59;;;;;;;355.40;236.20;;;;;;;23.38;65.28;99667.28;343994;28;2128;-79
2022/06/03 00:27:34;;;;;;;357.23;238.40;;;;;;;23.42;65.00;99674.00;342438;28;1551;-79
2022/06/03 00:28:35;;;;;;;360.70;243.95;;;;;;;23.43;64.75;99670.34;342453;28;1178;-79
2022/06/03 00:29:04;;;;;;;355.33;232.55;;;;;;;23.41;65.11;99683.00;341314;29;850;-79
2022/06/03 00:29:30;;;;;;;355.98;238.43;;;;;;;23.42;65.01;99673.16;342576;28;975;-79
2022/06/03 00:30:07;;;;;;;356.92;237.80;;;;;;;23.38;65.15;99669.13;343899;28;1888;-79
2022/06/03 00:30:26;;;;;;;360.40;241.68;;;;;;;23.35;64.82;99670.25;343474;28;1484;-79
2022/06/03 00:30:50;;;;;;;357.73;238.07;;;;;;;23.29;65.08;99675.31;343499;28;1734;-78
2022/06/03 00:31:05;;;;;;;359.83;246.88;;;;;;;23.25;65.24;99668.56;342207;28;1076;-79
2022/06/03 00:31:41;;;;;;;359.75;241.48;;;;;;;23.25;65.12;99669.41;343771;28;1114;-79
2022/06/03 00:31:55;;;;;;;359.88;244.60;;;;;;;23.27;65.10;99671.94;341851;28;1546;-78
2022/06/03 00:32:27;;;;;;;363.25;245.80;;;;;;;23.25;64.68;99669.41;342075;28;3272;-78
2022/06/03 00:33:01;;;;;;;359.05;244.55;;;;;;;23.21;64.88;99670.66;341047;28;1387;-78
2022/06/03 00:33:33;;;;;;;359.98;244.75;;;;;;;23.20;64.49;99675.16;341440;28;1583;-79
2022/06/03 00:33:53;;;;;;;360.70;241.40;;;;;;;23.22;65.00;99669.69;342620;28;1458;-79
2022/06/03 00:34:38;;;;;;;364.10;243.07;;;;;;;23.20;64.82;99677.84;344641;28;1126;-79
2022/06/03 00:35:04;;;;;;;361.92;246.02;;;;;;;23.23;64.85;99668.72;345174;28;1053;-79
2022/06/03 00:35:17;;;;;;;360.08;243.70;;;;;;;23.23;64.68;99674.03;347897;28;912;-79
2022/06/03 00:35:48;;;;;;;360.95;243.18;;;;;;;23.23;64.77;99666.03;344229;28;2343;-79
2022/06/03 00:36:03;;;;;;;365.00;251.80;;;;;;;23.25;64.89;99666.75;341994;28;1535;-79
2022/06/03 00:36:19;;;;;;;365.02;254.38;;;;;;;23.27;64.78;99666.59;339836;28;1786;-79
2022/06/03 00:36:44;;;;;;;362.85;250.93;;;;;;;23.25;64.12;99666.75;341930;28;1608;-79
2022/06/03 00:37:01;;;;;;;359.88;244.52;;;;;;;23.24;64.88;99662.38;344653;28;1558;-79
2022/06/03 00:37:34;;;;;;;359.27;238.88;;;;;;;23.26;64.41;99663.09;344159;28;914;-79
2022/06/03 00:38:00;;;;;;;360.98;242.57;;;;;;;23.25;64.50;99664.06;342702;28;904;-79
2022/06/03 00:38:51;;;;;;;361.58;243.07;;;;;;;23.27;64.74;99662.09;342246;28;1491;-79
2022/06/03 00:39:28;;;;;;;360.77;247.18;;;;;;;23.25;64.62;99665.91;342599;28;952;-78
2022/06/03 00:39:57;;;;;;;371.20;245.88;;;;;;;23.24;64.83;99670.41;344733;28;1336;-79
2022/06/03 00:40:36;;;;;;;364.15;244.20;;;;;;;23.23;64.84;99666.88;343483;28;2089;-79
2022/06/03 00:41:11;;;;;;;362.10;247.55;;;;;;;23.22;65.43;99665.19;342466;28;2927;-79
2022/06/03 00:41:49;;;;;;;364.08;248.55;;;;;;;23.22;65.05;99669.69;343366;28;1377;-79
2022/06/03 00:42:22;;;;;;;362.58;246.02;;;;;;;23.23;64.94;99666.03;342423;28;1534;-79
2022/06/03 00:43:07;;;;;;;357.27;236.02;;;;;;;23.23;64.96;99668.72;342336;28;856;-79
2022/06/03 00:43:23;;;;;;;362.60;239.70;;;;;;;23.24;65.05;99667.72;342089;28;1501;-79
2022/06/03 00:43:56;;;;;;;358.73;237.32;;;;;;;23.25;64.95;99664.06;342172;28;1400;-79
2022/06/03 00:44:44;;;;;;;357.10;240.70;;;;;;;23.22;65.55;99662.53;344875;28;2288;-79
2022/06/03 00:45:43;;;;;;;364.70;247.30;;;;;;;23.17;65.43;99666.59;343399;28;1301;-79
2022/06/03 00:46:08;;;;;;;357.70;240.50;;;;;;;23.16;65.49;99659.56;340831;29;1342;-78
2022/06/03 00:46:51;;;;;;;361.90;242.82;;;;;;;23.19;65.63;99661.97;342373;28;857;-78
2022/06/03 00:47:07;;;;;;;361.48;244.90;;;;;;;23.22;65.64;99667.03;343910;28;1425;-78
2022/06/03 00:47:20;;;;;;;361.33;242.32;;;;;;;23.22;65.50;99661.69;346143;28;1350;-78
2022/06/03 00:47:42;;;;;;;358.92;243.25;;;;;;;23.22;65.64;99665.19;345099;28;1378;-78
2022/06/03 00:48:21;;;;;;;360.05;246.60;;;;;;;23.17;65.80;99661.25;343895;28;1537;-79
2022/06/03 00:48:45;;;;;;;362.73;242.93;;;;;;;23.13;65.41;99668.72;342113;28;1455;-78
2022/06/03 00:49:14;;;;;;;365.27;245.13;;;;;;;23.12;65.90;99659.00;342951;28;1446;-78
2022/06/03 00:49:42;;;;;;;363.88;244.90;;;;;;;23.11;65.33;99657.31;344315;28;1829;-78
2022/06/03 00:50:04;;;;;;;358.27;242.93;;;;;;;23.12;65.40;99658.16;343059;28;4052;-78
2022/06/03 00:50:24;;;;;;;365.88;249.23;;;;;;;23.11;65.37;99661.81;342558;28;1472;-78
2022/06/03 00:50:50;;;;;;;366.85;250.52;;;;;;;23.12;65.57;99658.16;342458;28;1349;-79
2022/06/03 00:51:06;;;;;;;361.38;242.18;;;;;;;23.12;65.77;99655.50;342354;28;1039;-79
2022/06/03 00:51:26;;;;;;;362.42;241.77;;;;;;;23.11;65.49;99654.66;342330;28;834;-79
2022/06/03 00:52:12;;;;;;;362.65;240.10;;;;;;;23.08;65.38;99656.75;342211;28;1443;-79
2022/06/03 00:53:03;;;;;;;362.52;244.20;;;;;;;23.13;65.55;99666.03;342219;28;1487;-79
2022/06/03 00:53:38;;;;;;;358.75;239.15;;;;;;;23.10;65.28;99660.97;344379;28;1460;-79
2022/06/03 00:54:01;;;;;;;361.17;243.25;;;;;;;23.10;65.55;99660.13;342659;28;1666;-79
2022/06/03 00:54:31;;;;;;;362.02;243.00;;;;;;;23.07;65.68;99661.25;342021;28;1692;-79
2022/06/03 00:55:14;;;;;;;362.50;240.88;;;;;;;23.08;65.46;99662.09;340111;29;1718;-79
2022/06/03 00:55:42;;;;;;;361.30;238.93;;;;;;;23.05;65.37;99659.72;344008;28;1487;-79
2022/06/03 00:56:12;;;;;;;357.74;238.58;;;;;;;23.05;65.45;99654.38;344783;28;1497;-79
2022/06/03 00:56:43;;;;;;;363.48;242.77;;;;;;;23.08;65.16;99662.09;345045;28;952;-79
2022/06/03 00:57:18;;;;;;;358.50;241.30;;;;;;;23.10;65.49;99668.16;343593;28;2299;-79
2022/06/03 00:57:32;;;;;;;358.67;243.27;;;;;;;23.10;65.43;99655.63;344666;28;2093;-78
2022/06/03 00:57:54;;;;;;;359.65;244.30;;;;;;;23.10;65.23;99660.13;343928;28;1215;-78
2022/06/03 00:58:20;;;;;;;362.67;243.43;;;;;;;23.10;65.37;99660.13;343366;28;1539;-79
2022/06/03 00:58:30;;;;;;;360.42;241.38;;;;;;;23.08;65.77;99652.25;342167;28;1503;-78
2022/06/03 00:58:52;;;;;;;361.33;243.68;;;;;;;23.09;65.43;99664.63;342451;28;1655;-78
2022/06/03 00:59:35;;;;;;;362.83;242.93;;;;;;;23.10;65.41;99660.97;338965;28;4894;-78
2022/06/03 01:00:05;;;;;;;362.38;242.15;;;;;;;23.09;65.53;99656.63;339654;29;1655;-78
2022/06/03 01:00:47;;;;;;;360.10;247.38;;;;;;;23.10;65.07;99665.47;342318;28;2020;-78
2022/06/03 01:01:06;;;;;;;359.17;245.27;;;;;;;23.09;65.62;99661.13;342915;28;1831;-78
2022/06/03 01:01:24;;;;;;;358.55;238.57;;;;;;;23.06;65.64;99653.38;342356;28;1480;-78
2022/06/03 01:01:56;;;;;;;361.08;241.65;;;;;;;23.08;65.76;99662.94;342328;28;916;-78
2022/06/03 01:02:44;;;;;;;357.52;244.45;;;;;;;23.10;65.69;99654.78;342116;28;1544;-78
2022/06/03 01:03:04;;;;;;;361.30;247.73;;;;;;;23.09;65.58;99661.13;342693;28;1535;-78
2022/06/03 01:03:40;;;;;;;367.13;247.05;;;;;;;23.09;65.42;99664.63;341117;28;1518;-78
2022/06/03 01:04:00;;;;;;;362.77;243.27;;;;;;;23.07;65.51;99661.25;341225;28;1402;-78
2022/06/03 01:04:22;;;;;;;363.58;241.85;;;;;;;23.08;65.18;99662.09;340240;29;1672;-78
2022/06/03 01:05:04;;;;;;;360.02;239.85;;;;;;;23.05;65.47;99659.72;339689;29;830;-78
2022/06/03 01:05:36;;;;;;;362.17;239.77;;;;;;;23.05;65.72;99657.03;341602;28;1465;-78
2022/06/03 01:06:10;;;;;;;364.60;248.75;;;;;;;23.06;65.35;99664.91;342713;28;1562;-78
2022/06/03 01:06:39;;;;;;;359.70;240.82;;;;;;;23.09;65.32;99663.78;343479;28;1076;-79
2022/06/03 01:07:08;;;;;;;364.33;242.93;;;;;;;23.08;65.15;99660.28;342324;28;1028;-78
2022/06/03 01:08:05;;;;;;;359.42;242.18;;;;;;;23.08;65.14;99662.09;344506;28;1098;-78
2022/06/03 01:08:30;;;;;;;357.88;239.07;;;;;;;23.11;65.33;99656.47;343300;28;4966;-78
2022/06/03 01:08:47;;;;;;;362.92;246.25;;;;;;;23.11;65.22;99656.47;345548;28;1915;-79
2022/06/03 01:09:16;;;;;;;360.98;243.07;;;;;;;23.10;65.10;99657.47;347475;28;1512;-79
2022/06/03 01:09:45;;;;;;;360.73;245.10;;;;;;;23.10;65.11;99658.31;346259;28;1396;-78
2022/06/03 01:10:12;;;;;;;360.85;240.48;;;;;;;23.08;65.20;99652.25;342711;28;1463;-79
2022/06/03 01:10:31;;;;;;;363.02;241.13;;;;;;;23.09;65.22;99653.94;342529;28;1423;-78
2022/06/03 01:10:45;;;;;;;355.35;234.35;;;;;;;23.09;64.83;99655.78;343626;28;1423;-78
2022/06/03 01:11:14;;;;;;;357.73;235.82;;;;;;;23.10;65.05;99652.13;342529;28;1464;-78
2022/06/03 01:11:47;;;;;;;361.88;238.75;;;;;;;23.10;64.65;99660.13;343852;28;1629;-79
2022/06/03 01:12:07;;;;;;;357.38;234.68;;;;;;;23.08;64.77;99654.09;345637;28;759;-78
2022/06/03 01:12:39;;;;;;;362.77;242.18;;;;;;;23.07;64.78;99655.06;341915;28;1014;-79
2022/06/03 01:12:58;;;;;;;356.73;235.57;;;;;;;23.07;64.77;99655.06;342637;28;1425;-79
2022/06/03 01:13:21;;;;;;;361.83;240.75;;;;;;;23.04;65.22;99650.84;343560;28;1583;-79
2022/06/03 01:13:50;;;;;;;358.65;238.13;;;;;;;23.05;64.82;99651.69;342244;28;1450;-78
2022/06/03 01:14:15;;;;;;;358.63;241.80;;;;;;;23.08;65.23;99657.59;343828;28;1207;-78
2022/06/03 01:14:53;;;;;;;359.27;237.10;;;;;;;23.07;64.89;99652.41;344633;28;1619;-78
2022/06/03 01:15:16;;;;;;;359.38;238.68;;;;;;;23.07;64.99;99649.72;344146;28;933;-79
2022/06/03 01:15:38;;;;;;;362.73;241.45;;;;;;;23.06;65.16;99648.03;344963;28;1489;-79
2022/06/03 01:16:26;;;;;;;360.27;235.13;;;;;;;23.07;64.95;99649.72;343784;28;841;-79
2022/06/03 01:16:58;;;;;;;359.67;238.40;;;;;;;23.08;64.78;99654.94;342500;28;1883;-78
2022/06/03 01:17:12;;;;;;;361.60;242.85;;;;;;;23.09;64.86;99655.78;342050;28;1582;-79
2022/06/03 01:17:35;;;;;;;361.17;245.45;;;;;;;23.06;65.11;99651.56;339045;28;4079;-79
2022/06/03 01:18:04;;;;;;;364.33;244.48;;;;;;;23.07;65.00;99650.56;342191;28;1164;-79
2022/06/03 01:18:26;;;;;;;355.73;240.55;;;;;;;23.06;64.98;99650.72;340819;29;2470;-79
2022/06/03 01:18:50;;;;;;;360.20;240.77;;;;;;;23.05;64.93;99651.69;340971;29;1492;-79
2022/06/03 01:19:28;;;;;;;362.50;240.75;;;;;;;23.03;65.06;99648.34;340846;29;1957;-78
2022/06/03 01:19:46;;;;;;;357.92;240.63;;;;;;;23.04;65.15;99644.69;343063;28;1720;-78
2022/06/03 01:20:18;;;;;;;357.13;239.30;;;;;;;23.02;65.02;99651.97;343619;28;1843;-78
2022/06/03 01:20:39;;;;;;;360.73;236.05;;;;;;;23.03;65.45;99648.34;342163;28;1612;-78
2022/06/03 01:21:08;;;;;;;359.92;240.98;;;;;;;23.01;65.02;99655.63;343750;28;1975;-78
2022/06/03 01:21:45;;;;;;;357.88;234.45;;;;;;;23.00;65.56;99645.94;343753;28;1146;-78
2022/06/03 01:22:16;;;;;;;359.50;241.27;;;;;;;23.00;65.15;99654.78;341065;28;1626;-78
2022/06/03 01:22:51;;;;;;;358.35;239.93;;;;;;;23.02;65.03;99652.81;339540;29;1292;-78
2022/06/03 01:23:38;;;;;;;359.65;237.63;;;;;;;23.03;65.04;99648.34;342648;28;1496;-78
2022/06/03 01:23:49;;;;;;;361.73;244.18;;;;;;;23.02;64.97;99654.66;342432;28;1355;-78
2022/06/03 01:24:17;;;;;;;364.80;247.43;;;;;;;23.01;65.41;99655.63;342419;28;1827;-78
2022/06/03 01:24:42;;;;;;;361.80;242.77;;;;;;;23.01;64.99;99656.47;341478;28;1403;-77
2022/06/03 01:25:05;;;;;;;355.15;238.38;;;;;;;23.02;65.41;99651.97;338643;29;1329;-79
2022/06/03 01:25:33;;;;;;;359.67;240.73;;;;;;;23.03;65.45;99654.50;342454;28;1456;-80
2022/06/03 01:25:54;;;;;;;356.02;242.10;;;;;;;23.02;65.41;99651.97;342436;28;1131;-80
2022/06/03 01:26:16;;;;;;;360.30;243.30;;;;;;;23.01;65.09;99661.81;344024;28;1063;-79
2022/06/03 01:27:03;;;;;;;362.85;247.65;;;;;;;23.01;65.27;99655.63;341867;28;1376;-80
2022/06/03 01:27:51;;;;;;;354.38;244.82;;;;;;;22.99;65.94;99660.28;341125;28;2161;-79
2022/06/03 01:28:23;;;;;;;359.92;242.32;;;;;;;22.98;65.44;99656.75;341400;28;1424;-80
2022/06/03 01:28:52;;;;;;;362.73;245.90;;;;;;;22.98;65.88;99655.91;343662;28;1243;-78
2022/06/03 01:29:20;;;;;;;358.80;243.65;;;;;;;22.97;65.94;99659.56;343417;28;1008;-79
2022/06/03 01:30:03;;;;;;;362.60;244.38;;;;;;;22.98;65.73;99653.25;343211;28;1391;-79
2022/06/03 01:30:44;;;;;;;360.63;243.30;;;;;;;22.98;65.80;99650.56;342791;28;1664;-78
2022/06/03 01:31:03;;;;;;;362.02;240.90;;;;;;;22.99;65.73;99652.25;342309;28;1496;-79
2022/06/03 01:31:32;;;;;;;358.95;236.85;;;;;;;22.98;66.31;99655.91;346276;28;1426;-79
2022/06/03 01:32:11;;;;;;;361.48;239.85;;;;;;;22.94;66.29;99652.72;344907;28;1487;-78
2022/06/03 01:32:55;;;;;;;358.85;236.50;;;;;;;22.94;66.41;99649.19;343419;28;1299;-78
2022/06/03 01:33:11;;;;;;;362.17;243.23;;;;;;;22.93;66.63;99658.19;340866;29;1301;-78
2022/06/03 01:33:21;;;;;;;364.50;241.63;;;;;;;22.94;66.52;99655.38;341033;29;835;-78
2022/06/03 01:33:50;;;;;;;363.98;241.55;;;;;;;22.95;66.16;99656.22;341312;28;1528;-78
2022/06/03 01:34:30;;;;;;;358.08;236.95;;;;;;;22.93;66.20;99655.53;342982;28;1554;-78
2022/06/03 01:35:05;;;;;;;365.65;243.57;;;;;;;22.89;66.36;99653.13;337906;29;1776;-78
2022/06/03 01:35:33;;;;;;;360.67;239.48;;;;;;;22.87;66.77;99659.59;339349;29;1356;-78
2022/06/03 01:35:52;;;;;;;355.52;235.50;;;;;;;22.82;66.57;99651.16;346523;28;1414;-78
2022/06/03 01:36:25;;;;;;;361.58;243.40;;;;;;;22.81;66.83;99652.97;344467;28;3371;-78
2022/06/03 01:37:00;;;;;;;362.13;238.23;;;;;;;22.78;67.09;99655.06;343498;28;1544;-78
2022/06/03 01:37:19;;;;;;;358.17;237.60;;;;;;;22.76;66.92;99651.69;343262;28;1448;-79
2022/06/03 01:37:31;;;;;;;362.13;242.20;;;;;;;22.72;66.98;99651.13;340275;29;1495;-79
2022/06/03 01:37:49;;;;;;;361.70;240.75;;;;;;;22.74;67.16;99654.50;340771;28;1556;-79
2022/06/03 01:38:41;;;;;;;362.90;238.98;;;;;;;22.72;67.32;99656.44;341476;28;1460;-78
2022/06/03 01:39:18;;;;;;;363.70;241.30;;;;;;;22.74;67.21;99654.50;339748;29;909;-78
2022/06/03 01:39:47;;;;;;;363.63;245.70;;;;;;;22.70;67.10;99647.75;340072;29;1326;-78
2022/06/03 01:40:06;;;;;;;364.00;242.35;;;;;;;22.72;66.90;99645.78;339263;29;1453;-78
2022/06/03 01:40:45;;;;;;;362.48;243.65;;;;;;;22.72;66.89;99643.09;339390;29;1504;-78
2022/06/03 01:41:20;;;;;;;361.90;243.32;;;;;;;22.68;67.12;99649.69;339461;29;1106;-78
2022/06/03 01:41:44;;;;;;;362.60;240.45;;;;;;;22.69;67.21;99646.06;338861;29;1287;-78
2022/06/03 01:42:32;;;;;;;362.65;239.82;;;;;;;22.66;67.38;99646.31;339509;29;1143;-78
2022/06/03 01:43:19;;;;;;;362.15;238.85;;;;;;;22.65;67.62;99647.31;339495;29;1626;-78
2022/06/03 01:43:57;;;;;;;359.75;235.20;;;;;;;22.57;67.42;99641.81;341225;28;1417;-78
2022/06/03 01:44:17;;;;;;;360.77;239.95;;;;;;;22.55;67.88;99641.97;339528;29;1326;-78
2022/06/03 01:44:33;;;;;;;359.88;238.23;;;;;;;22.56;67.61;99648.13;338114;29;1456;-78
2022/06/03 01:45:12;;;;;;;362.77;242.63;;;;;;;22.55;67.56;99644.63;339528;29;1519;-78
2022/06/03 01:45:28;;;;;;;363.63;237.27;;;;;;;22.56;68.03;99632.13;341727;28;4037;-78
2022/06/03 01:45:58;;;;;;;364.10;237.48;;;;;;;22.59;67.92;99639.84;344040;28;1247;-78
2022/06/03 01:46:18;;;;;;;364.77;235.90;;;;;;;22.59;67.73;99634.53;344512;28;1032;-78
2022/06/03 01:46:52;;;;;;;367.13;235.68;;;;;;;22.60;68.24;99640.69;343917;28;1379;-78
2022/06/03 01:47:30;;;;;;;362.13;240.90;;;;;;;22.58;68.24;99646.16;339316;29;1512;-78
2022/06/03 01:47:46;;;;;;;358.90;233.25;;;;;;;22.57;68.29;99634.66;337451;29;1072;-79
2022/06/03 01:48:00;;;;;;;358.83;234.70;;;;;;;22.57;68.13;99640.00;336988;29;907;-79
2022/06/03 01:48:20;;;;;;;363.17;238.30;;;;;;;22.56;67.73;99646.31;340741;28;1053;-79
2022/06/03 01:48:33;;;;;;;362.85;236.85;;;;;;;22.55;67.53;99639.28;343629;28;1387;-78
2022/06/03 01:48:58;;;;;;;360.75;231.52;;;;;;;22.54;68.30;99634.94;343015;28;1597;-78
2022/06/03 01:49:45;;;;;;;360.42;235.73;;;;;;;22.55;68.18;99641.09;342324;28;1450;-78
2022/06/03 01:50:01;;;;;;;363.75;239.05;;;;;;;22.54;68.11;99636.75;340967;28;1327;-79
2022/06/03 01:50:23;;;;;;;362.15;240.27;;;;;;;22.54;68.20;99636.75;341745;28;1885;-78
2022/06/03 01:50:33;;;;;;;365.98;241.32;;;;;;;22.54;67.95;99642.09;342301;28;1441;-78
2022/06/03 01:51:11;;;;;;;367.60;238.67;;;;;;;22.55;68.27;99644.63;342369;28;1295;-78
2022/06/03 01:51:37;;;;;;;356.38;236.43;;;;;;;22.55;68.13;99643.78;342497;28;1301;-78
2022/06/03 01:52:06;;;;;;;354.73;234.80;;;;;;;22.57;68.07;99641.81;342357;28;1877;-78
2022/06/03 01:52:54;;;;;;;358.83;237.75;;;;;;;22.58;67.62;99646.16;344188;28;1051;-78
2022/06/03 01:53:16;;;;;;;359.95;232.70;;;;;;;22.53;68.07;99648.41;345629;28;1467;-78
2022/06/03 01:53:53;;;;;;;362.25;234.90;;;;;;;22.55;67.90;99643.78;343579;28;929;-78
2022/06/03 01:54:41;;;;;;;359.65;234.35;;;;;;;22.55;67.80;99644.63;343200;28;1538;-78
2022/06/03 01:55:17;;;;;;;363.50;242.82;;;;;;;22.54;68.02;99647.44;343688;28;1680;-78
2022/06/03 01:56:14;;;;;;;364.02;240.45;;;;;;;22.52;67.54;99646.75;344782;28;1561;-78
2022/06/03 01:56:42;;;;;;;370.27;243.25;;;;;;;22.55;67.27;99654.44;340873;29;1376;-78
2022/06/03 01:57:24;;;;;;;361.90;240.20;;;;;;;22.53;67.55;99656.41;342064;28;1584;-78
2022/06/03 01:57:39;;;;;;;358.83;238.30;;;;;;;22.50;67.87;99651.38;342152;28;1398;-78
2022/06/03 01:58:14;;;;;;;360.17;242.07;;;;;;;22.49;67.89;99655.03;341529;28;1860;-79
2022/06/03 01:58:59;;;;;;;359.55;239.02;;;;;;;22.48;67.46;99642.66;341757;28;2536;-78
2022/06/03 01:59:24;;;;;;;363.52;243.88;;;;;;;22.47;67.74;99651.66;340623;29;2074;-78
2022/06/03 01:59:49;;;;;;;361.95;237.73;;;;;;;22.47;68.15;99651.66;340362;29;1152;-78
2022/06/03 02:00:08;;;;;;;363.20;239.82;;;;;;;22.47;67.97;99646.31;339612;29;1345;-78
2022/06/03 02:00:35;;;;;;;362.33;237.07;;;;;;;22.46;67.86;99644.63;340620;28;1302;-78
2022/06/03 02:00:48;;;;;;;365.20;245.35;;;;;;;22.44;68.28;99652.78;338459;29;1910;-78
2022/06/03 02:01:13;;;;;;;368.33;247.07;;;;;;;22.45;67.80;99653.63;339880;29;1480;-78
2022/06/03 02:02:09;;;;;;;367.27;238.18;;;;;;;22.43;67.99;99655.56;341950;28;1489;-78
2022/06/03 02:02:31;;;;;;;359.05;236.38;;;;;;;22.39;68.48;99648.81;340173;29;1526;-78
2022/06/03 02:03:11;;;;;;;361.17;237.80;;;;;;;22.39;68.31;99654.16;341824;28;1478;-78
2022/06/03 02:03:57;;;;;;;363.17;237.80;;;;;;;22.38;68.56;99652.47;343716;28;1364;-78
2022/06/03 02:04:26;;;;;;;364.23;244.00;;;;;;;22.39;68.21;99655.00;340755;28;1552;-78
2022/06/03 02:05:01;;;;;;;358.50;237.77;;;;;;;22.39;68.15;99649.66;341094;28;1670;-78
2022/06/03 02:05:48;;;;;;;361.83;238.93;;;;;;;22.39;68.19;99651.50;341111;28;1412;-78
2022/06/03 02:06:17;;;;;;;362.02;237.77;;;;;;;22.41;68.39;99652.19;343732;28;1398;-78
2022/06/03 02:06:46;;;;;;;362.13;236.00;;;;;;;22.37;68.32;99651.63;343614;28;1666;-78
2022/06/03 02:07:15;;;;;;;361.88;241.45;;;;;;;22.37;68.82;99656.13;343643;28;1842;-78
2022/06/03 02:07:28;;;;;;;362.02;237.95;;;;;;;22.35;68.46;99642.91;342812;28;1639;-78
2022/06/03 02:07:53;;;;;;;361.88;239.43;;;;;;;22.37;68.48;99645.44;341609;28;1491;-78
2022/06/03 02:08:16;;;;;;;359.42;237.57;;;;;;;22.36;68.76;99649.94;342271;28;1682;-78
2022/06/03 02:08:38;;;;;;;361.27;239.18;;;;;;;22.37;68.21;99640.13;341770;28;1652;-78
2022/06/03 02:09:10;;;;;;;368.15;240.75;;;;;;;22.38;68.91;99652.47;342432;28;1698;-78
2022/06/03 02:09:44;;;;;;;361.40;238.90;;;;;;;22.39;68.67;99646.16;342945;28;1292;-78
2022/06/03 02:10:13;;;;;;;361.95;236.88;;;;;;;22.40;68.22;99642.50;343679;28;1658;-78
2022/06/03 02:10:35;;;;;;;363.73;238.95;;;;;;;22.38;68.76;99642.66;344934;28;1134;-78
2022/06/03 02:11:10;;;;;;;364.58;242.70;;;;;;;22.40;68.83;99646.03;346438;28;1386;-78
2022/06/03 02:11:45;;;;;;;356.77;232.90;;;;;;;22.39;68.77;99651.50;345679;28;1234;-78
2022/06/03 02:12:05;;;;;;;357.45;235.75;;;;;;;22.36;68.47;99649.09;346714;28;1390;-77
2022/06/03 02:12:37;;;;;;;357.50;235.43;;;;;;;22.35;68.91;99647.41;345300;28;1090;-77
2022/06/03 02:12:58;;;;;;;360.48;235.02;;;;;;;22.34;68.98;99645.72;343529;28;1344;-77
2022/06/03 02:13:44;;;;;;;363.98;235.98;;;;;;;22.35;69.08;99642.06;343896;28;1384;-77
2022/06/03 02:14:06;;;;;;;366.58;237.52;;;;;;;22.33;69.04;99652.03;339936;29;1542;-78
2022/06/03 02:14:38;;;;;;;365.27;237.60;;;;;;;22.32;68.76;99650.34;339727;29;1309;-78
2022/06/03 02:15:13;;;;;;;362.98;238.00;;;;;;;22.32;69.13;99658.34;339972;29;1147;-78
2022/06/03 02:15:31;;;;;;;358.83;238.63;;;;;;;22.31;69.27;99649.50;340199;29;2086;-77
2022/06/03 02:16:18;;;;;;;361.63;235.95;;;;;;;22.31;69.42;99656.66;340882;28;1904;-78